createdAt,value
2023-02-13T00:00:26.047Z,4.00
2023-02-13T00:02:52.969Z,4.00
2023-02-13T00:05:20.072Z,4.10
2023-02-13T00:07:46.951Z,4.10
2023-02-13T00:10:13.860Z,4.10
2023-02-13T00:12:40.983Z,4.10
2023-02-13T00:15:08.843Z,4.20
2023-02-13T00:17:36.519Z,4.10
2023-02-13T00:20:04.154Z,4.20
2023-02-13T00:22:31.074Z,4.10
2023-02-13T00:24:57.874Z,4.10
2023-02-13T00:27:24.680Z,4.10
2023-02-13T00:29:51.512Z,4.20
2023-02-13T00:32:18.344Z,4.10
2023-02-13T00:34:45.228Z,4.20
2023-02-13T00:37:12.078Z,4.20
2023-02-13T00:39:38.953Z,4.20
2023-02-13T00:42:06.466Z,4.20
2023-02-13T00:44:33.415Z,4.20
2023-02-13T00:47:00.205Z,4.20
2023-02-13T00:49:27.392Z,4.30
2023-02-13T00:51:54.197Z,4.20
2023-02-13T00:54:21.013Z,4.20
2023-02-13T00:56:47.838Z,4.20
2023-02-13T00:59:14.866Z,4.30
2023-02-13T01:01:41.738Z,4.30
2023-02-13T01:04:08.593Z,4.30
2023-02-13T01:06:35.508Z,4.30
2023-02-13T01:09:04.401Z,4.30
2023-02-13T01:11:31.385Z,4.30
2023-02-13T01:13:58.201Z,4.30
2023-02-13T01:16:26.192Z,4.20
2023-02-13T01:18:53.334Z,4.30
2023-02-13T01:21:23.786Z,4.40
2023-02-13T01:23:51.611Z,4.30
2023-02-13T01:26:23.833Z,4.30
2023-02-13T01:28:55.133Z,4.40
2023-02-13T01:31:23.416Z,4.30
2023-02-13T01:33:50.862Z,4.30
2023-02-13T01:36:17.915Z,4.30
2023-02-13T01:38:44.736Z,4.30
2023-02-13T01:41:11.850Z,4.40
2023-02-13T01:43:52.700Z,4.40
2023-02-13T01:46:30.470Z,4.40
2023-02-13T01:49:03.319Z,4.40
2023-02-13T01:51:35.547Z,4.40
2023-02-13T01:54:17.251Z,4.40
2023-02-13T01:56:48.611Z,4.40
2023-02-13T01:59:19.933Z,4.40
2023-02-13T02:01:47.661Z,4.40
2023-02-13T02:04:25.386Z,4.40
2023-02-13T02:06:58.005Z,4.50
2023-02-13T02:09:30.163Z,4.40
2023-02-13T02:12:03.243Z,4.40
2023-02-13T02:14:30.556Z,4.40
2023-02-13T02:16:57.971Z,4.30
2023-02-13T02:19:27.469Z,4.40
2023-02-13T02:22:30.530Z,4.40
2023-02-13T02:25:08.648Z,4.40
2023-02-13T02:27:57.470Z,4.40
2023-02-13T02:30:33.399Z,4.50
2023-02-13T02:33:08.184Z,4.50
2023-02-13T02:36:01.101Z,4.40
2023-02-13T02:38:49.544Z,4.40
2023-02-13T02:41:44.071Z,4.50
2023-02-13T02:44:50.560Z,4.50
2023-02-13T02:47:56.427Z,4.50
2023-02-13T02:50:51.800Z,4.40
2023-02-13T02:53:39.220Z,4.50
2023-02-13T02:56:54.132Z,4.40
2023-02-13T02:59:40.465Z,4.50
2023-02-13T03:02:27.392Z,4.50
2023-02-13T03:05:16.515Z,4.60
2023-02-13T03:07:44.202Z,4.60
2023-02-13T03:10:34.553Z,4.50
2023-02-13T03:13:20.901Z,4.50
2023-02-13T03:16:11.739Z,4.60
2023-02-13T03:19:00.948Z,4.60
2023-02-13T03:21:46.418Z,4.60
2023-02-13T03:24:44.015Z,4.50
2023-02-13T03:27:50.546Z,4.50
2023-02-13T03:30:34.850Z,4.60
2023-02-13T03:33:10.715Z,4.60
2023-02-13T03:36:04.621Z,4.50
2023-02-13T03:38:59.018Z,4.50
2023-02-13T03:41:31.513Z,4.50
2023-02-13T03:44:25.032Z,4.60
2023-02-13T03:46:55.402Z,4.60
2023-02-13T03:49:48.459Z,4.60
2023-02-13T03:52:30.259Z,4.50
2023-02-13T03:55:37.906Z,4.60
2023-02-13T03:58:44.047Z,4.50
2023-02-13T04:01:15.103Z,4.50
2023-02-13T04:03:44.636Z,4.50
2023-02-13T04:06:15.374Z,4.50
2023-02-13T04:08:42.915Z,4.60
2023-02-13T04:11:36.831Z,4.60
2023-02-13T04:14:20.159Z,4.60
2023-02-13T04:16:55.469Z,4.60
2023-02-13T04:19:23.946Z,4.60
2023-02-13T04:21:56.354Z,4.70
2023-02-13T04:24:23.162Z,4.60
2023-02-13T04:26:50.093Z,4.70
2023-02-13T04:29:16.835Z,4.60
2023-02-13T04:31:43.689Z,4.60
2023-02-13T04:34:10.540Z,4.70
2023-02-13T04:36:37.385Z,4.70
2023-02-13T04:39:04.317Z,4.70
2023-02-13T04:41:31.118Z,4.70
2023-02-13T04:43:58.063Z,4.70
2023-02-13T04:46:25.160Z,4.80
2023-02-13T04:48:51.941Z,4.70
2023-02-13T04:51:18.795Z,4.70
2023-02-13T04:53:45.589Z,4.70
2023-02-13T04:56:13.242Z,4.80
2023-02-13T04:58:42.042Z,4.90
2023-02-13T05:01:13.759Z,4.80
2023-02-13T05:03:41.133Z,4.80
2023-02-13T05:06:08.297Z,4.60
2023-02-13T05:08:35.472Z,4.70
2023-02-13T05:11:02.287Z,4.70
2023-02-13T05:13:29.098Z,4.70
2023-02-13T05:15:56.110Z,4.80
2023-02-13T05:18:22.980Z,4.80
2023-02-13T05:21:09.728Z,4.80
2023-02-13T05:23:36.872Z,4.80
2023-02-13T05:26:04.061Z,4.80
2023-02-13T05:28:49.281Z,4.80
2023-02-13T05:31:16.138Z,4.80
2023-02-13T05:33:42.976Z,4.80
2023-02-13T05:36:09.832Z,4.90
2023-02-13T05:38:36.762Z,4.80
2023-02-13T05:41:03.643Z,4.80
2023-02-13T05:43:30.654Z,4.70
2023-02-13T05:46:08.136Z,4.70
2023-02-13T05:48:35.195Z,4.70
2023-02-13T05:51:01.977Z,4.80
2023-02-13T05:53:29.831Z,4.80
2023-02-13T05:55:57.004Z,4.80
2023-02-13T05:58:23.910Z,4.90
2023-02-13T06:00:50.956Z,4.80
2023-02-13T06:03:17.817Z,4.80
2023-02-13T06:05:44.845Z,4.70
2023-02-13T06:08:11.682Z,4.70
2023-02-13T06:10:38.827Z,4.70
2023-02-13T06:13:05.916Z,4.80
2023-02-13T06:15:32.856Z,4.90
2023-02-13T06:17:59.993Z,4.90
2023-02-13T06:20:27.157Z,5.00
2023-02-13T06:22:54.040Z,4.90
2023-02-13T06:25:21.392Z,4.80
2023-02-13T06:27:48.204Z,4.90
2023-02-13T06:30:16.408Z,4.80
2023-02-13T06:32:43.601Z,4.90
2023-02-13T06:35:10.418Z,4.90
2023-02-13T06:37:37.285Z,4.80
2023-02-13T06:40:04.424Z,4.80
2023-02-13T06:42:31.216Z,4.80
2023-02-13T06:44:58.003Z,4.90
2023-02-13T06:47:24.828Z,4.90
2023-02-13T06:49:51.683Z,5.00
2023-02-13T06:52:18.623Z,5.10
2023-02-13T06:54:48.031Z,5.00
2023-02-13T06:57:16.228Z,4.90
2023-02-13T06:59:43.544Z,4.90
2023-02-13T07:02:11.740Z,5.00
2023-02-13T07:04:38.567Z,5.00
2023-02-13T07:07:05.796Z,4.90
2023-02-13T07:09:33.037Z,5.00
2023-02-13T07:12:03.856Z,5.00
2023-02-13T07:14:30.689Z,4.90
2023-02-13T07:16:57.827Z,5.00
2023-02-13T07:19:24.744Z,4.90
2023-02-13T07:21:51.651Z,5.00
2023-02-13T07:24:18.457Z,5.00
2023-02-13T07:26:45.253Z,5.10
2023-02-13T07:29:12.568Z,5.10
2023-02-13T07:31:39.931Z,5.10
2023-02-13T07:34:07.549Z,5.20
2023-02-13T07:36:34.722Z,5.30
2023-02-13T07:39:01.593Z,5.40
2023-02-13T07:41:28.382Z,5.40
2023-02-13T07:43:55.284Z,5.40
2023-02-13T07:46:22.264Z,5.40
2023-02-13T07:48:49.149Z,5.30
2023-02-13T07:51:16.502Z,5.40
2023-02-13T07:53:43.345Z,5.40
2023-02-13T07:56:11.373Z,5.60
2023-02-13T07:58:40.603Z,5.70
2023-02-13T08:01:12.357Z,5.80
2023-02-13T08:03:39.741Z,6.00
2023-02-13T08:06:07.302Z,6.10
2023-02-13T08:08:34.496Z,5.90
2023-02-13T08:11:35.994Z,6.00
2023-02-13T08:14:02.782Z,6.00
2023-02-13T08:16:29.650Z,5.90
2023-02-13T08:18:56.443Z,5.90
2023-02-13T08:21:23.237Z,5.80
2023-02-13T08:23:52.255Z,5.70
2023-02-13T08:26:19.130Z,5.70
2023-02-13T08:28:45.992Z,5.50
2023-02-13T08:31:13.457Z,5.60
2023-02-13T08:33:41.596Z,5.70
2023-02-13T08:36:08.722Z,5.60
2023-02-13T08:38:35.534Z,5.70
2023-02-13T08:41:02.314Z,5.70
2023-02-13T08:43:29.078Z,5.70
2023-02-13T08:45:59.694Z,5.80
2023-02-13T08:48:29.569Z,5.80
2023-02-13T08:50:56.383Z,5.90
2023-02-13T08:53:23.510Z,5.90
2023-02-13T08:55:57.878Z,6.00
2023-02-13T08:58:24.957Z,6.10
2023-02-13T09:00:51.810Z,6.20
2023-02-13T09:03:18.975Z,6.30
2023-02-13T09:05:45.897Z,6.30
2023-02-13T09:08:13.833Z,6.50
2023-02-13T09:10:41.731Z,6.70
2023-02-13T09:13:08.661Z,7.10
2023-02-13T09:15:40.267Z,7.30
2023-02-13T09:18:07.942Z,7.30
2023-02-13T09:20:35.977Z,7.50
2023-02-13T09:23:03.180Z,7.60
2023-02-13T09:25:30.098Z,7.30
2023-02-13T09:27:56.941Z,7.00
2023-02-13T09:30:23.943Z,6.90
2023-02-13T09:32:54.889Z,6.90
2023-02-13T09:35:22.834Z,6.50
2023-02-13T09:37:49.661Z,6.20
2023-02-13T09:40:22.860Z,6.10
2023-02-13T09:42:50.544Z,6.20
2023-02-13T09:45:20.969Z,6.10
2023-02-13T09:47:48.514Z,6.00
2023-02-13T09:50:24.103Z,6.00
2023-02-13T09:52:53.637Z,6.00
2023-02-13T09:55:31.272Z,5.90
2023-02-13T09:58:16.438Z,5.90
2023-02-13T10:00:50.644Z,5.90
2023-02-13T10:03:31.084Z,6.00
2023-02-13T10:06:04.018Z,5.90
2023-02-13T10:08:39.821Z,5.90
2023-02-13T10:11:31.037Z,6.10
2023-02-13T10:14:16.601Z,6.10
2023-02-13T10:16:52.526Z,6.20
2023-02-13T10:19:28.304Z,6.20
2023-02-13T10:21:58.954Z,6.20
2023-02-13T10:24:44.137Z,6.20
2023-02-13T10:27:22.461Z,6.10
2023-02-13T10:30:12.465Z,6.10
2023-02-13T10:32:52.499Z,6.10
2023-02-13T10:35:23.424Z,6.20
2023-02-13T10:37:53.980Z,6.30
2023-02-13T10:40:21.349Z,6.40
2023-02-13T10:43:14.445Z,6.40
2023-02-13T10:45:56.615Z,6.40
2023-02-13T10:48:25.983Z,6.20
2023-02-13T10:51:13.337Z,6.30
2023-02-13T10:53:50.049Z,6.40
2023-02-13T10:56:52.101Z,6.40
2023-02-13T10:59:46.035Z,6.40
2023-02-13T11:02:23.023Z,6.40
2023-02-13T11:05:02.917Z,6.40
2023-02-13T11:07:31.443Z,6.40
2023-02-13T11:10:06.122Z,6.40
2023-02-13T11:12:34.352Z,6.30
2023-02-13T11:15:05.304Z,6.20
2023-02-13T11:17:36.604Z,6.00
2023-02-13T11:20:08.305Z,5.90
2023-02-13T11:22:38.240Z,5.90
2023-02-13T11:25:17.867Z,6.10
2023-02-13T11:27:46.212Z,6.10
2023-02-13T11:30:33.922Z,6.20
2023-02-13T11:33:05.149Z,6.30
2023-02-13T11:35:35.031Z,6.40
2023-02-13T11:38:12.444Z,6.40
2023-02-13T11:40:39.616Z,6.40
2023-02-13T11:43:07.926Z,6.40
2023-02-13T11:45:35.353Z,6.40
2023-02-13T11:48:09.643Z,6.40
2023-02-13T11:50:37.729Z,6.60
2023-02-13T11:53:23.053Z,6.60
2023-02-13T11:56:25.591Z,6.60
2023-02-13T11:59:02.833Z,6.40
2023-02-13T12:01:29.713Z,6.30
2023-02-13T12:04:16.401Z,6.30
2023-02-13T12:07:00.978Z,6.40
2023-02-13T12:09:29.255Z,6.40
2023-02-13T12:12:00.722Z,6.40
2023-02-13T12:14:33.332Z,6.20
2023-02-13T12:17:14.276Z,6.20
2023-02-13T12:19:46.083Z,6.30
2023-02-13T12:22:30.774Z,6.20
2023-02-13T12:25:16.449Z,6.30
2023-02-13T12:28:22.458Z,6.30
2023-02-13T12:31:11.071Z,6.40
2023-02-13T12:34:04.089Z,6.50
2023-02-13T12:36:30.879Z,6.60
2023-02-13T12:39:26.516Z,6.70
2023-02-13T12:42:11.922Z,6.60
2023-02-13T12:44:38.777Z,6.60
2023-02-13T12:47:23.787Z,6.70
2023-02-13T12:50:17.876Z,6.70
2023-02-13T12:52:53.628Z,6.60
2023-02-13T12:55:41.848Z,6.60
2023-02-13T12:58:37.776Z,6.50
2023-02-13T13:01:35.469Z,6.40
2023-02-13T13:04:26.531Z,6.50
2023-02-13T13:07:07.035Z,6.50
2023-02-13T13:09:45.903Z,6.50
2023-02-13T13:12:24.206Z,6.40
2023-02-13T13:14:57.571Z,6.40
2023-02-13T13:17:46.123Z,6.50
2023-02-13T13:20:43.824Z,6.40
2023-02-13T13:23:21.524Z,6.40
2023-02-13T13:26:07.405Z,6.40
2023-02-13T13:28:43.433Z,6.40
2023-02-13T13:31:12.898Z,6.50
2023-02-13T13:33:43.180Z,6.50
2023-02-13T13:36:39.463Z,6.30
2023-02-13T13:39:31.166Z,6.40
2023-02-13T13:42:17.096Z,6.50
2023-02-13T13:45:09.004Z,6.50
2023-02-13T13:48:06.092Z,6.40
2023-02-13T13:50:39.050Z,6.50
2023-02-13T13:53:13.414Z,6.40
2023-02-13T13:56:11.316Z,6.30
2023-02-13T13:58:45.730Z,6.30
2023-02-13T14:01:25.626Z,6.20
2023-02-13T14:04:21.473Z,6.30
2023-02-13T14:06:48.177Z,6.20
2023-02-13T14:09:42.008Z,6.30
2023-02-13T14:12:27.505Z,6.30
2023-02-13T14:14:56.608Z,6.40
2023-02-13T14:17:45.338Z,6.30
2023-02-13T14:20:21.695Z,6.20
2023-02-13T14:22:48.999Z,6.30
2023-02-13T14:25:25.892Z,6.30
2023-02-13T14:28:03.881Z,6.40
2023-02-13T14:30:36.645Z,6.30
2023-02-13T14:33:06.708Z,6.30
2023-02-13T14:35:37.473Z,6.20
2023-02-13T14:38:23.516Z,6.30
2023-02-13T14:40:51.747Z,6.20
2023-02-13T14:43:29.645Z,6.20
2023-02-13T14:46:26.529Z,6.10
2023-02-13T14:49:04.338Z,6.20
2023-02-13T14:51:50.799Z,6.20
2023-02-13T14:54:38.538Z,6.10
2023-02-13T14:57:26.731Z,6.20
2023-02-13T14:59:58.389Z,6.10
2023-02-13T15:02:33.560Z,6.20
2023-02-13T15:05:19.949Z,6.10
2023-02-13T15:07:58.757Z,6.10
2023-02-13T15:10:40.141Z,6.10
2023-02-13T15:13:18.356Z,6.20
2023-02-13T15:15:51.629Z,6.20
2023-02-13T15:18:27.917Z,6.20
2023-02-13T15:21:03.161Z,6.10
2023-02-13T15:23:32.618Z,6.20
2023-02-13T15:26:05.608Z,6.20
2023-02-13T15:28:34.682Z,6.30
2023-02-13T15:31:06.184Z,6.20
2023-02-13T15:33:35.246Z,6.40
2023-02-13T15:36:06.108Z,6.10
2023-02-13T15:38:38.104Z,6.10
2023-02-13T15:41:30.091Z,6.00
2023-02-13T15:43:59.178Z,6.10
2023-02-13T15:46:28.340Z,6.10
2023-02-13T15:48:57.858Z,6.10
2023-02-13T15:51:28.333Z,5.90
2023-02-13T15:53:57.479Z,6.00
2023-02-13T15:56:25.133Z,5.90
2023-02-13T15:58:53.715Z,5.80
2023-02-13T16:01:21.076Z,5.80
2023-02-13T16:03:54.065Z,5.80
2023-02-13T16:06:23.612Z,5.80
2023-02-13T16:08:55.328Z,5.80
2023-02-13T16:11:44.260Z,5.90
2023-02-13T16:14:25.646Z,5.80
2023-02-13T16:16:58.484Z,5.80
2023-02-13T16:19:34.560Z,5.80
2023-02-13T16:22:26.709Z,5.80
2023-02-13T16:24:56.025Z,5.90
2023-02-13T16:27:27.572Z,5.80
2023-02-13T16:30:20.490Z,5.80
2023-02-13T16:32:47.630Z,5.80
2023-02-13T16:35:21.894Z,5.90
2023-02-13T16:37:52.112Z,5.80
2023-02-13T16:40:30.939Z,5.80
2023-02-13T16:43:32.920Z,5.80
2023-02-13T16:46:19.124Z,5.80
2023-02-13T16:48:58.404Z,5.80
2023-02-13T16:51:36.900Z,5.70
2023-02-13T16:54:25.040Z,5.80
2023-02-13T16:56:56.772Z,5.70
2023-02-13T16:59:28.930Z,5.80
2023-02-13T17:02:23.388Z,5.70
2023-02-13T17:04:55.914Z,5.70
2023-02-13T17:07:25.934Z,5.70
2023-02-13T17:10:00.269Z,5.60
2023-02-13T17:12:28.914Z,5.70
2023-02-13T17:14:58.918Z,5.70
2023-02-13T17:17:31.042Z,5.70
2023-02-13T17:20:02.290Z,5.70
2023-02-13T17:22:35.933Z,5.70
2023-02-13T17:25:06.489Z,5.70
2023-02-13T17:27:33.665Z,5.70
2023-02-13T17:30:01.488Z,5.70
2023-02-13T17:32:28.766Z,5.70
2023-02-13T17:34:55.841Z,5.70
2023-02-13T17:37:24.826Z,5.70
2023-02-13T17:39:52.616Z,5.70
2023-02-13T17:42:33.385Z,5.60
2023-02-13T17:45:00.218Z,5.60
2023-02-13T17:47:27.351Z,5.70
2023-02-13T17:50:01.893Z,5.70
2023-02-13T17:52:30.856Z,5.70
2023-02-13T17:54:57.699Z,5.60
2023-02-13T17:57:24.614Z,5.60
2023-02-13T17:59:51.777Z,5.60
2023-02-13T18:02:21.556Z,5.70
2023-02-13T18:04:49.638Z,5.60
2023-02-13T18:07:21.157Z,5.60
2023-02-13T18:09:48.162Z,5.60
2023-02-13T18:12:20.090Z,5.60
2023-02-13T18:14:47.927Z,5.60
2023-02-13T18:17:14.920Z,5.60
2023-02-13T18:19:42.206Z,5.60
2023-02-13T18:22:10.109Z,5.60
2023-02-13T18:24:40.082Z,5.60
2023-02-13T18:27:07.926Z,5.50
2023-02-13T18:29:37.394Z,5.60
2023-02-13T18:32:07.596Z,5.60
2023-02-13T18:34:36.535Z,5.50
2023-02-13T18:37:04.536Z,5.50
2023-02-13T18:39:32.701Z,5.50
2023-02-13T18:41:59.675Z,5.50
2023-02-13T18:44:28.675Z,5.50
2023-02-13T18:46:55.992Z,5.50
2023-02-13T18:49:23.083Z,5.60
2023-02-13T18:51:50.569Z,5.50
2023-02-13T18:54:18.124Z,5.50
2023-02-13T18:56:46.009Z,5.50
2023-02-13T18:59:13.306Z,5.60
2023-02-13T19:01:40.159Z,5.50
2023-02-13T19:04:07.273Z,5.60
2023-02-13T19:06:34.408Z,5.50
2023-02-13T19:09:01.236Z,5.40
2023-02-13T19:11:28.079Z,5.40
2023-02-13T19:14:02.524Z,5.40
2023-02-13T19:16:30.996Z,5.40
2023-02-13T19:19:00.330Z,5.40
2023-02-13T19:21:30.174Z,5.40
2023-02-13T19:23:57.334Z,5.40
2023-02-13T19:26:26.100Z,5.50
2023-02-13T19:28:53.675Z,5.40
2023-02-13T19:31:22.849Z,5.40
2023-02-13T19:33:55.133Z,5.40
2023-02-13T19:36:29.710Z,5.40
2023-02-13T19:38:58.750Z,5.30
2023-02-13T19:41:26.469Z,5.40
2023-02-13T19:43:56.008Z,5.40
2023-02-13T19:46:28.555Z,5.50
2023-02-13T19:48:55.894Z,5.40
2023-02-13T19:51:25.362Z,5.40
2023-02-13T19:53:57.736Z,5.40
2023-02-13T19:56:27.166Z,5.30
2023-02-13T19:58:54.613Z,5.30
2023-02-13T20:01:23.948Z,5.30
2023-02-13T20:03:52.372Z,5.40
2023-02-13T20:06:25.547Z,5.40
2023-02-13T20:08:53.025Z,5.30
2023-02-13T20:11:22.058Z,5.30
2023-02-13T20:13:52.987Z,5.30
2023-02-13T20:16:20.429Z,5.30
2023-02-13T20:18:47.460Z,5.40
2023-02-13T20:21:16.233Z,5.30
2023-02-13T20:23:49.796Z,5.30
2023-02-13T20:26:20.102Z,5.30
2023-02-13T20:28:47.160Z,5.30
2023-02-13T20:31:20.076Z,5.30
2023-02-13T20:33:48.824Z,5.30
2023-02-13T20:36:18.927Z,5.40
2023-02-13T20:38:45.917Z,5.30
2023-02-13T20:41:16.083Z,5.40
2023-02-13T20:43:43.313Z,5.30
2023-02-13T20:46:10.793Z,5.20
2023-02-13T20:48:39.281Z,5.30
2023-02-13T20:51:11.550Z,5.30
2023-02-13T20:53:39.691Z,5.20
2023-02-13T20:56:16.812Z,5.20
2023-02-13T20:58:45.069Z,5.30
2023-02-13T21:01:14.107Z,5.30
2023-02-13T21:03:42.213Z,5.30
2023-02-13T21:06:10.507Z,5.30
2023-02-13T21:08:37.712Z,5.10
2023-02-13T21:11:06.888Z,5.10
2023-02-13T21:13:35.159Z,5.10
2023-02-13T21:16:14.178Z,5.10
2023-02-13T21:18:42.330Z,5.10
2023-02-13T21:21:10.416Z,5.00
2023-02-13T21:23:38.199Z,5.00
2023-02-13T21:26:08.431Z,5.00
2023-02-13T21:28:36.247Z,5.00
2023-02-13T21:31:18.535Z,4.90
2023-02-13T21:33:45.428Z,4.90
2023-02-13T21:36:13.276Z,5.00
2023-02-13T21:38:41.140Z,5.00
2023-02-13T21:41:12.677Z,5.00
2023-02-13T21:43:42.046Z,5.00
2023-02-13T21:46:15.279Z,5.00
2023-02-13T21:48:42.681Z,5.00
2023-02-13T21:51:12.010Z,5.00
2023-02-13T21:53:39.484Z,5.00
2023-02-13T21:56:10.653Z,5.00
2023-02-13T21:58:39.825Z,4.90
2023-02-13T22:01:25.899Z,4.90
2023-02-13T22:03:55.153Z,5.00
2023-02-13T22:06:22.189Z,5.00
2023-02-13T22:08:55.299Z,5.00
2023-02-13T22:11:22.125Z,5.00
2023-02-13T22:13:48.968Z,5.00
2023-02-13T22:16:16.012Z,5.00
2023-02-13T22:18:45.095Z,5.10
2023-02-13T22:21:14.435Z,5.20
2023-02-13T22:23:42.682Z,5.20
2023-02-13T22:26:21.054Z,5.10
2023-02-13T22:28:48.171Z,5.10
2023-02-13T22:31:15.643Z,5.00
2023-02-13T22:33:47.491Z,5.10
2023-02-13T22:36:18.116Z,5.00
2023-02-13T22:38:45.130Z,4.90
2023-02-13T22:41:18.585Z,4.90
2023-02-13T22:43:45.513Z,4.90
2023-02-13T22:46:22.625Z,4.90
2023-02-13T22:48:52.387Z,4.90
2023-02-13T22:51:25.136Z,4.90
2023-02-13T22:53:57.051Z,4.90
2023-02-13T22:56:25.212Z,4.90
2023-02-13T22:58:52.275Z,4.90
2023-02-13T23:01:21.655Z,5.00
2023-02-13T23:03:48.762Z,4.90
2023-02-13T23:06:16.590Z,5.00
2023-02-13T23:08:43.995Z,5.00
2023-02-13T23:11:35.544Z,4.90
2023-02-13T23:14:03.405Z,5.00
2023-02-13T23:16:49.335Z,5.00
2023-02-13T23:19:16.245Z,5.10
2023-02-13T23:21:43.117Z,5.00
2023-02-13T23:24:10.003Z,5.00
2023-02-13T23:26:36.792Z,5.00
2023-02-13T23:29:03.599Z,5.00
2023-02-13T23:31:30.519Z,5.00
2023-02-13T23:33:57.382Z,4.90
2023-02-13T23:36:24.233Z,4.90
2023-02-13T23:38:51.001Z,4.90
2023-02-13T23:41:18.070Z,4.90
2023-02-13T23:43:44.852Z,5.00
2023-02-13T23:46:11.834Z,4.90
2023-02-13T23:48:38.619Z,5.00
2023-02-13T23:51:05.688Z,5.00
2023-02-13T23:53:36.011Z,5.00
2023-02-13T23:56:03.548Z,5.00
2023-02-13T23:58:30.423Z,4.80
